createdAt,value
2018-08-30T00:02:23.161Z,15.13
2018-08-30T00:04:51.863Z,14.67
2018-08-30T00:07:20.462Z,14.93
2018-08-30T00:09:49.285Z,14.37
2018-08-30T00:12:18.001Z,15.37
2018-08-30T00:14:46.686Z,15.30
2018-08-30T00:17:16.039Z,15.07
2018-08-30T00:19:44.686Z,15.13
2018-08-30T00:22:13.405Z,15.30
2018-08-30T00:24:42.107Z,15.33
2018-08-30T00:27:10.681Z,14.97
2018-08-30T00:29:39.359Z,15.70
2018-08-30T00:32:08.050Z,16.00
2018-08-30T00:34:36.654Z,15.50
2018-08-30T00:37:05.238Z,15.87
2018-08-30T00:39:33.899Z,15.57
2018-08-30T00:42:02.534Z,16.77
2018-08-30T00:44:31.177Z,16.13
2018-08-30T00:46:59.907Z,16.30
2018-08-30T00:49:29.161Z,15.80
2018-08-30T00:51:57.978Z,15.23
2018-08-30T00:54:26.653Z,15.27
2018-08-30T00:56:55.267Z,16.93
2018-08-30T00:59:23.880Z,16.07
2018-08-30T01:01:53.782Z,16.37
2018-08-30T01:04:22.433Z,17.13
2018-08-30T01:06:51.145Z,16.67
2018-08-30T01:09:19.817Z,16.67
2018-08-30T01:11:51.361Z,17.40
2018-08-30T01:14:20.525Z,17.17
2018-08-30T01:16:49.254Z,16.77
2018-08-30T01:19:18.094Z,17.50
2018-08-30T01:21:46.789Z,17.20
2018-08-30T01:24:16.260Z,17.10
2018-08-30T01:26:45.545Z,17.87
2018-08-30T01:29:14.389Z,17.43
2018-08-30T01:31:43.093Z,18.13
2018-08-30T01:34:13.132Z,18.20
2018-08-30T01:36:43.393Z,18.70
2018-08-30T01:39:12.419Z,19.90
2018-08-30T01:41:42.501Z,18.57
2018-08-30T01:44:11.922Z,19.13
2018-08-30T01:46:40.611Z,18.37
2018-08-30T01:49:09.300Z,18.50
2018-08-30T01:51:38.051Z,19.80
2018-08-30T01:54:07.124Z,19.93
2018-08-30T01:56:36.004Z,19.77
2018-08-30T01:59:04.815Z,19.23
2018-08-30T02:01:33.423Z,19.63
2018-08-30T02:04:02.592Z,20.23
2018-08-30T02:06:31.209Z,21.00
2018-08-30T02:08:59.978Z,20.27
2018-08-30T02:11:28.967Z,22.25
2018-08-30T02:13:57.638Z,21.83
2018-08-30T02:16:26.673Z,21.50
2018-08-30T02:18:55.346Z,21.03
2018-08-30T02:21:25.081Z,21.07
2018-08-30T02:23:53.738Z,21.87
2018-08-30T02:26:22.424Z,22.60
2018-08-30T02:28:51.107Z,22.37
2018-08-30T02:31:19.804Z,22.40
2018-08-30T02:33:53.080Z,21.73
2018-08-30T02:36:21.962Z,22.43
2018-08-30T02:38:50.729Z,22.23
2018-08-30T02:41:19.425Z,23.63
2018-08-30T02:43:48.329Z,22.73
2018-08-30T02:46:17.061Z,23.30
2018-08-30T02:48:45.684Z,22.93
2018-08-30T02:51:14.281Z,22.37
2018-08-30T02:53:43.205Z,24.27
2018-08-30T02:56:11.868Z,24.43
2018-08-30T02:58:43.333Z,23.57
2018-08-30T03:01:12.450Z,22.60
2018-08-30T03:03:41.813Z,22.63
2018-08-30T03:06:10.502Z,24.40
2018-08-30T03:08:39.278Z,24.37
2018-08-30T03:11:09.036Z,25.33
2018-08-30T03:13:38.386Z,24.60
2018-08-30T03:16:07.177Z,24.83
2018-08-30T03:18:35.864Z,25.60
2018-08-30T03:21:04.554Z,25.70
2018-08-30T03:23:33.304Z,24.47
2018-08-30T03:26:02.091Z,25.43
2018-08-30T03:28:30.984Z,26.57
2018-08-30T03:30:59.849Z,25.73
2018-08-30T03:33:28.537Z,25.97
2018-08-30T03:35:57.292Z,26.10
2018-08-30T03:38:26.115Z,25.50
2018-08-30T03:40:55.549Z,26.23
2018-08-30T03:43:24.208Z,26.63
2018-08-30T03:45:52.908Z,27.73
2018-08-30T03:48:21.613Z,26.90
2018-08-30T03:50:50.238Z,26.83
2018-08-30T03:53:19.465Z,27.27
2018-08-30T03:55:48.141Z,27.07
2018-08-30T03:58:16.955Z,27.80
2018-08-30T04:00:45.663Z,27.60
2018-08-30T04:03:14.350Z,28.53
2018-08-30T04:05:43.217Z,27.53
2018-08-30T04:08:11.882Z,26.73
2018-08-30T04:10:40.728Z,28.20
2018-08-30T04:13:09.413Z,28.47
2018-08-30T04:15:38.142Z,27.80
2018-08-30T04:18:08.484Z,27.77
2018-08-30T04:20:37.170Z,27.13
2018-08-30T04:23:06.187Z,27.57
2018-08-30T04:25:35.622Z,29.13
2018-08-30T04:28:04.241Z,29.37
2018-08-30T04:30:32.909Z,28.00
2018-08-30T04:33:01.544Z,28.10
2018-08-30T04:35:30.184Z,27.63
2018-08-30T04:37:58.890Z,29.37
2018-08-30T04:40:27.906Z,28.13
2018-08-30T04:42:56.609Z,29.23
2018-08-30T04:45:25.203Z,28.07
2018-08-30T04:47:53.951Z,28.37
2018-08-30T04:50:22.685Z,27.53
2018-08-30T04:52:51.639Z,28.33
2018-08-30T04:55:20.865Z,28.37
2018-08-30T04:57:49.447Z,29.40
2018-08-30T05:00:18.124Z,27.67
2018-08-30T05:02:46.753Z,28.97
2018-08-30T05:05:15.422Z,27.97
2018-08-30T05:07:45.065Z,28.37
2018-08-30T05:10:13.793Z,28.47
2018-08-30T05:12:43.438Z,28.23
2018-08-30T05:15:12.707Z,29.03
2018-08-30T05:17:41.946Z,27.90
2018-08-30T05:20:10.729Z,27.40
2018-08-30T05:22:39.341Z,27.70
2018-08-30T05:25:08.114Z,27.23
2018-08-30T05:27:36.706Z,26.93
2018-08-30T05:30:05.410Z,27.23
2018-08-30T05:32:34.011Z,26.63
2018-08-30T05:35:02.697Z,26.80
2018-08-30T05:37:33.384Z,27.37
2018-08-30T05:40:02.116Z,27.27
2018-08-30T05:42:30.911Z,27.20
2018-08-30T05:45:00.589Z,27.40
2018-08-30T05:47:31.429Z,25.97
2018-08-30T05:50:00.120Z,26.27
2018-08-30T05:52:28.821Z,26.53
2018-08-30T05:54:57.541Z,26.73
2018-08-30T05:57:26.211Z,26.63
2018-08-30T05:59:54.897Z,27.83
2018-08-30T06:02:23.570Z,26.23
2018-08-30T06:04:52.566Z,26.80
2018-08-30T06:07:21.347Z,25.93
2018-08-30T06:09:50.763Z,26.73
2018-08-30T06:12:19.442Z,25.30
2018-08-30T06:14:48.049Z,25.67
2018-08-30T06:17:16.656Z,24.97
2018-08-30T06:19:45.435Z,26.13
2018-08-30T06:22:14.047Z,24.90
2018-08-30T06:24:42.625Z,25.73
2018-08-30T06:27:11.235Z,24.33
2018-08-30T06:29:39.974Z,24.67
2018-08-30T06:32:08.709Z,24.43
2018-08-30T06:34:37.391Z,24.60
2018-08-30T06:37:06.529Z,24.07
2018-08-30T06:39:35.380Z,34.90
2018-08-30T06:42:04.159Z,23.40
2018-08-30T06:44:32.845Z,22.90
2018-08-30T06:47:01.667Z,22.00
2018-08-30T06:49:30.309Z,22.10
2018-08-30T06:51:59.039Z,24.03
2018-08-30T06:54:27.694Z,23.40
2018-08-30T06:56:56.437Z,23.17
2018-08-30T06:59:25.157Z,22.80
2018-08-30T07:01:54.009Z,22.63
2018-08-30T07:04:23.004Z,22.07
2018-08-30T07:06:51.665Z,22.10
2018-08-30T07:09:20.545Z,22.57
2018-08-30T07:11:49.196Z,22.23
2018-08-30T07:14:18.013Z,21.93
2018-08-30T07:16:47.657Z,22.20
2018-08-30T07:19:16.366Z,21.67
2018-08-30T07:21:45.034Z,20.73
2018-08-30T07:24:13.812Z,20.97
2018-08-30T07:26:43.716Z,20.47
2018-08-30T07:29:12.503Z,20.33
2018-08-30T07:31:41.233Z,19.70
2018-08-30T07:34:10.154Z,20.43
2018-08-30T07:36:38.897Z,19.30
2018-08-30T07:39:10.661Z,18.10
2018-08-30T07:41:40.002Z,18.73
2018-08-30T07:44:09.365Z,17.73
2018-08-30T07:46:38.210Z,17.93
2018-08-30T07:49:07.681Z,17.97
2018-08-30T07:51:36.297Z,18.13
2018-08-30T07:54:05.311Z,18.03
2018-08-30T07:56:33.912Z,17.60
2018-08-30T07:59:02.630Z,17.60
2018-08-30T08:01:31.498Z,16.87
2018-08-30T08:04:02.680Z,15.83
2018-08-30T08:06:31.821Z,16.83
2018-08-30T08:09:00.481Z,16.90
2018-08-30T08:11:29.374Z,16.90
2018-08-30T08:13:58.006Z,15.87
2018-08-30T08:16:28.102Z,16.90
2018-08-30T08:18:57.048Z,16.33
2018-08-30T08:21:25.820Z,16.00
2018-08-30T08:23:54.590Z,15.03
2018-08-30T08:26:23.612Z,16.23
2018-08-30T08:28:52.475Z,14.47
2018-08-30T08:31:21.158Z,14.40
2018-08-30T08:34:50.286Z,14.00
2018-08-30T08:37:18.957Z,13.73
2018-08-30T08:39:48.553Z,13.30
2018-08-30T08:42:18.149Z,13.80
2018-08-30T08:44:46.738Z,14.10
2018-08-30T08:47:15.738Z,13.60
2018-08-30T08:49:44.549Z,13.23
2018-08-30T08:52:13.224Z,12.03
2018-08-30T08:54:41.833Z,11.73
2018-08-30T08:57:10.422Z,11.40
2018-08-30T08:59:39.197Z,10.90
2018-08-30T09:02:08.313Z,11.07
2018-08-30T09:04:37.106Z,12.00
2018-08-30T09:07:06.444Z,10.90
2018-08-30T09:09:36.275Z,11.27
2018-08-30T09:12:04.969Z,11.47
2018-08-30T09:14:33.707Z,10.67
2018-08-30T09:17:02.263Z,11.07
2018-08-30T09:19:30.976Z,10.60
2018-08-30T09:21:59.806Z,11.07
2018-08-30T09:24:28.554Z,11.33
2018-08-30T09:26:57.338Z,10.87
2018-08-30T09:29:25.830Z,12.70
2018-08-30T09:31:54.521Z,11.13
2018-08-30T09:34:23.432Z,10.63
2018-08-30T09:36:52.287Z,11.10
2018-08-30T09:39:22.101Z,11.47
2018-08-30T09:41:50.754Z,10.07
2018-08-30T09:44:19.493Z,10.23
2018-08-30T09:46:48.226Z,11.33
2018-08-30T09:49:17.000Z,11.17
2018-08-30T09:51:46.115Z,10.93
2018-08-30T09:54:14.989Z,12.13
2018-08-30T09:56:43.693Z,11.00
2018-08-30T09:59:12.384Z,10.97
2018-08-30T10:01:48.090Z,11.47
2018-08-30T10:04:19.964Z,11.03
2018-08-30T10:06:49.313Z,10.60
2018-08-30T10:09:18.777Z,11.23
2018-08-30T10:11:48.574Z,11.10
2018-08-30T10:14:17.683Z,11.70
2018-08-30T10:16:46.429Z,11.43
2018-08-30T10:19:15.653Z,12.60
2018-08-30T10:21:44.638Z,10.37
2018-08-30T10:24:14.127Z,11.17
2018-08-30T10:26:42.976Z,11.33
2018-08-30T10:29:11.667Z,11.77
2018-08-30T10:31:40.556Z,11.93
2018-08-30T10:34:09.211Z,11.40
2018-08-30T10:36:37.998Z,11.23
2018-08-30T10:39:08.315Z,12.17
2018-08-30T10:41:37.793Z,12.40
2018-08-30T10:44:06.722Z,12.10
2018-08-30T10:46:35.686Z,11.27
2018-08-30T10:49:04.481Z,11.23
2018-08-30T10:51:34.214Z,11.80
2018-08-30T10:54:02.995Z,11.53
2018-08-30T10:56:32.799Z,11.97
2018-08-30T10:59:01.662Z,10.90
2018-08-30T11:01:30.397Z,11.63
2018-08-30T11:03:59.421Z,11.93
2018-08-30T11:06:29.265Z,11.50
2018-08-30T11:08:58.133Z,12.70
2018-08-30T11:11:26.934Z,11.90
2018-08-30T11:13:55.661Z,11.97
2018-08-30T11:16:24.405Z,12.07
2018-08-30T11:18:53.107Z,11.63
2018-08-30T11:21:21.952Z,11.27
2018-08-30T11:23:50.707Z,11.70
2018-08-30T11:26:19.554Z,10.17
2018-08-30T11:28:48.325Z,10.57
2018-08-30T11:31:16.933Z,10.20
2018-08-30T11:33:45.829Z,11.30
2018-08-30T11:36:14.541Z,11.37
2018-08-30T11:38:43.290Z,12.00
2018-08-30T11:41:12.166Z,11.33
2018-08-30T11:43:41.702Z,11.73
2018-08-30T11:46:10.506Z,11.43
2018-08-30T11:48:39.296Z,11.40
2018-08-30T11:51:08.074Z,11.73
2018-08-30T11:53:36.704Z,10.82
2018-08-30T11:56:05.970Z,11.10
2018-08-30T11:58:34.748Z,12.07
2018-08-30T12:01:03.464Z,11.22
2018-08-30T12:03:32.663Z,11.50
2018-08-30T12:06:02.600Z,10.98
2018-08-30T12:08:31.457Z,11.70
2018-08-30T12:11:00.551Z,11.30
2018-08-30T12:13:30.098Z,11.10
2018-08-30T12:15:58.770Z,11.20
2018-08-30T12:18:27.355Z,11.22
2018-08-30T12:20:56.134Z,12.27
2018-08-30T12:23:26.999Z,11.33
2018-08-30T12:25:55.665Z,11.33
2018-08-30T12:28:24.456Z,11.53
2018-08-30T12:30:53.178Z,11.73
2018-08-30T12:33:21.850Z,11.37
2018-08-30T12:35:51.590Z,12.73
2018-08-30T12:38:20.734Z,11.70
2018-08-30T12:40:49.627Z,12.20
2018-08-30T12:43:18.220Z,12.23
2018-08-30T12:45:46.818Z,11.90
2018-08-30T12:48:15.531Z,12.03
2018-08-30T12:50:44.579Z,11.60
2018-08-30T12:53:13.308Z,11.53
2018-08-30T12:55:42.945Z,11.47
2018-08-30T12:58:12.628Z,10.80
2018-08-30T13:00:41.171Z,11.77
2018-08-30T13:03:09.968Z,12.00
2018-08-30T13:05:38.834Z,11.60
2018-08-30T13:08:07.568Z,11.47
2018-08-30T13:10:36.529Z,11.17
2018-08-30T13:13:05.216Z,11.70
2018-08-30T13:15:33.858Z,11.50
2018-08-30T13:18:02.501Z,11.93
2018-08-30T13:20:31.876Z,11.50
2018-08-30T13:23:00.888Z,12.00
2018-08-30T13:25:29.694Z,11.80
2018-08-30T13:27:58.475Z,10.77
2018-08-30T13:30:27.437Z,10.93
2018-08-30T13:32:56.060Z,10.63
2018-08-30T13:35:24.861Z,12.03
2018-08-30T13:37:53.678Z,11.53
2018-08-30T13:40:22.499Z,12.13
2018-08-30T13:42:51.258Z,11.37
2018-08-30T13:45:20.457Z,14.03
2018-08-30T13:47:50.166Z,12.67
2018-08-30T13:50:18.929Z,11.53
2018-08-30T13:52:47.807Z,11.73
2018-08-30T13:55:16.359Z,13.20
2018-08-30T13:57:45.307Z,12.90
2018-08-30T14:00:14.119Z,12.43
2018-08-30T14:02:42.619Z,12.43
2018-08-30T14:05:13.660Z,12.23
2018-08-30T14:07:42.357Z,12.87
2018-08-30T14:10:10.895Z,14.97
2018-08-30T14:12:39.604Z,12.77
2018-08-30T14:15:08.516Z,13.77
2018-08-30T14:17:36.806Z,14.13
2018-08-30T14:20:07.043Z,13.33
2018-08-30T14:22:36.703Z,13.73
2018-08-30T14:25:05.681Z,13.40
2018-08-30T14:27:34.753Z,13.67
2018-08-30T14:30:03.592Z,13.47
2018-08-30T14:32:32.339Z,13.87
2018-08-30T14:35:01.109Z,13.53
2018-08-30T14:37:30.039Z,14.07
2018-08-30T14:39:59.391Z,13.97
2018-08-30T14:42:28.085Z,13.33
2018-08-30T14:44:56.801Z,13.30
2018-08-30T14:47:26.346Z,12.23
2018-08-30T14:49:55.125Z,13.37
2018-08-30T14:52:24.606Z,12.87
2018-08-30T14:54:53.333Z,13.87
2018-08-30T14:57:22.166Z,14.17
2018-08-30T14:59:51.157Z,16.37
2018-08-30T15:02:20.082Z,14.43
2018-08-30T15:04:48.705Z,16.07
2018-08-30T15:07:18.485Z,17.00
2018-08-30T15:09:48.398Z,16.10
2018-08-30T15:12:17.712Z,17.17
2018-08-30T15:14:47.599Z,16.23
2018-08-30T15:17:16.697Z,17.43
2018-08-30T15:19:48.010Z,16.00
2018-08-30T15:22:16.676Z,16.80
2018-08-30T15:24:45.366Z,18.10
2018-08-30T15:27:14.153Z,17.53
2018-08-30T15:29:42.752Z,17.67
2018-08-30T15:32:11.476Z,18.35
2018-08-30T15:34:40.178Z,18.67
2018-08-30T15:37:09.118Z,14.47
2018-08-30T15:39:37.964Z,15.93
2018-08-30T15:42:06.728Z,16.27
2018-08-30T15:44:35.422Z,16.93
2018-08-30T15:47:04.225Z,16.43
2018-08-30T15:49:32.950Z,13.07
2018-08-30T15:52:01.654Z,13.93
2018-08-30T15:54:31.063Z,13.10
2018-08-30T15:57:00.458Z,12.97
2018-08-30T15:59:29.354Z,12.77
2018-08-30T16:01:58.665Z,11.40
2018-08-30T16:04:28.342Z,11.57
2018-08-30T16:06:56.962Z,10.97
2018-08-30T16:09:25.670Z,9.40
2018-08-30T16:11:54.429Z,11.00
2018-08-30T16:14:23.115Z,10.87
2018-08-30T16:16:51.928Z,11.17
2018-08-30T16:19:20.570Z,10.37
2018-08-30T16:21:49.291Z,11.20
2018-08-30T16:24:18.033Z,10.83
2018-08-30T16:26:46.825Z,11.83
2018-08-30T16:29:16.165Z,13.37
2018-08-30T16:31:45.356Z,13.50
2018-08-30T16:34:14.154Z,15.67
2018-08-30T16:36:42.835Z,15.83
2018-08-30T16:39:12.284Z,17.40
2018-08-30T16:41:41.215Z,17.97
2018-08-30T16:44:10.418Z,19.53
2018-08-30T16:46:40.648Z,21.80
2018-08-30T16:49:09.387Z,21.90
2018-08-30T16:51:38.022Z,22.53
2018-08-30T16:54:06.832Z,22.40
2018-08-30T16:56:35.750Z,23.60
2018-08-30T16:59:04.541Z,24.07
2018-08-30T17:01:33.102Z,25.47
2018-08-30T17:04:02.676Z,25.60
2018-08-30T17:06:31.329Z,24.77
2018-08-30T17:08:59.984Z,26.50
2018-08-30T17:11:28.768Z,27.57
2018-08-30T17:13:58.378Z,26.87
2018-08-30T17:16:28.300Z,28.60
2018-08-30T17:19:02.401Z,28.13
2018-08-30T17:21:32.023Z,29.93
2018-08-30T17:24:01.233Z,30.37
2018-08-30T17:26:30.023Z,29.50
2018-08-30T17:28:58.877Z,32.00
2018-08-30T17:31:27.608Z,29.87
2018-08-30T17:33:56.518Z,31.10
2018-08-30T17:36:25.384Z,30.37
2018-08-30T17:38:54.161Z,30.27
2018-08-30T17:41:22.877Z,31.23
2018-08-30T17:43:51.545Z,32.33
2018-08-30T17:46:21.498Z,34.30
2018-08-30T17:48:51.382Z,34.97
2018-08-30T17:51:19.997Z,37.33
2018-08-30T17:53:49.112Z,38.13
2018-08-30T17:56:17.893Z,38.87
2018-08-30T17:58:46.892Z,38.73
2018-08-30T18:01:15.715Z,37.10
2018-08-30T18:03:44.459Z,40.30
2018-08-30T18:06:13.167Z,39.60
2018-08-30T18:08:41.941Z,42.13
2018-08-30T18:11:11.650Z,39.77
2018-08-30T18:13:40.353Z,40.87
2018-08-30T18:16:09.054Z,43.13
2018-08-30T18:18:37.806Z,41.90
2018-08-30T18:21:06.409Z,43.27
2018-08-30T18:23:35.111Z,44.43
2018-08-30T18:26:03.750Z,46.13
2018-08-30T18:28:32.495Z,47.47
2018-08-30T18:31:01.403Z,45.63
2018-08-30T18:33:30.121Z,45.77
2018-08-30T18:35:59.596Z,47.90
2018-08-30T18:38:28.418Z,45.83
2018-08-30T18:40:57.426Z,44.70
2018-08-30T18:43:27.929Z,41.53
2018-08-30T18:45:56.821Z,37.27
2018-08-30T18:48:25.909Z,40.33
2018-08-30T18:50:54.847Z,41.43
2018-08-30T18:53:23.704Z,42.80
2018-08-30T18:55:52.478Z,39.10
2018-08-30T18:58:21.743Z,41.57
2018-08-30T19:00:50.593Z,42.15
2018-08-30T19:03:19.395Z,42.30
2018-08-30T19:05:48.388Z,43.63
2018-08-30T19:08:17.735Z,42.80
2018-08-30T19:10:46.435Z,45.67
2018-08-30T19:13:15.506Z,45.83
2018-08-30T19:15:50.519Z,48.27
2018-08-30T19:18:24.530Z,49.30
2018-08-30T19:20:53.223Z,48.10
2018-08-30T19:23:22.282Z,49.07
2018-08-30T19:25:51.419Z,50.80
2018-08-30T19:28:20.726Z,49.53
2018-08-30T19:30:49.607Z,50.70
2018-08-30T19:33:18.478Z,48.97
2018-08-30T19:35:52.926Z,47.77
2018-08-30T19:38:21.891Z,48.67
2018-08-30T19:40:56.767Z,42.63
2018-08-30T19:43:25.491Z,46.80
2018-08-30T19:45:56.027Z,45.03
2018-08-30T19:48:24.770Z,44.40
2018-08-30T19:50:53.701Z,45.33
2018-08-30T19:53:24.334Z,44.80
2018-08-30T19:55:53.015Z,47.97
2018-08-30T19:58:21.901Z,47.40
2018-08-30T20:00:50.783Z,51.83
2018-08-30T20:03:19.578Z,46.70
2018-08-30T20:05:48.937Z,47.17
2018-08-30T20:08:17.694Z,46.10
2018-08-30T20:10:46.434Z,48.77
2018-08-30T20:13:15.233Z,46.13
2018-08-30T20:15:43.956Z,46.03
2018-08-30T20:18:12.938Z,42.80
2018-08-30T20:20:42.526Z,41.77
2018-08-30T20:23:11.415Z,38.23
2018-08-30T20:25:40.521Z,36.63
2018-08-30T20:28:09.333Z,43.37
2018-08-30T20:30:39.169Z,36.33
2018-08-30T20:33:09.945Z,34.70
2018-08-30T20:35:40.445Z,32.40
2018-08-30T20:38:09.210Z,29.73
2018-08-30T20:40:37.913Z,29.93
2018-08-30T20:43:07.610Z,29.00
2018-08-30T20:45:36.218Z,27.67
2018-08-30T20:48:04.920Z,26.40
2018-08-30T20:50:33.610Z,23.33
2018-08-30T20:53:02.378Z,25.27
2018-08-30T20:55:31.150Z,21.83
2018-08-30T20:57:59.952Z,22.83
2018-08-30T21:00:29.592Z,22.07
2018-08-30T21:02:58.306Z,23.97
2018-08-30T21:05:27.308Z,23.93
2018-08-30T21:07:56.030Z,24.30
2018-08-30T21:10:24.673Z,23.20
2018-08-30T21:12:53.469Z,25.60
2018-08-30T21:15:22.298Z,25.73
2018-08-30T21:17:50.961Z,26.17
2018-08-30T21:20:19.766Z,26.50
2018-08-30T21:22:48.505Z,28.57
2018-08-30T21:25:17.112Z,26.63
2018-08-30T21:27:46.080Z,24.03
2018-08-30T21:30:14.610Z,23.60
2018-08-30T21:32:43.405Z,23.00
2018-08-30T21:35:12.062Z,22.67
2018-08-30T21:37:40.795Z,22.93
2018-08-30T21:40:10.545Z,22.80
2018-08-30T21:42:40.557Z,21.80
2018-08-30T21:45:09.326Z,22.17
2018-08-30T21:47:38.153Z,21.20
2018-08-30T21:50:07.124Z,21.20
2018-08-30T21:52:36.850Z,21.40
2018-08-30T21:55:06.674Z,20.40
2018-08-30T21:57:36.534Z,21.00
2018-08-30T22:00:06.277Z,19.60
2018-08-30T22:02:35.051Z,18.40
2018-08-30T22:05:03.756Z,17.03
2018-08-30T22:07:33.825Z,17.03
2018-08-30T22:10:02.603Z,18.13
2018-08-30T22:12:31.286Z,18.97
2018-08-30T22:14:59.974Z,19.57
2018-08-30T22:17:28.779Z,19.97
2018-08-30T22:19:57.358Z,19.77
2018-08-30T22:22:26.109Z,18.80
2018-08-30T22:24:54.941Z,19.60
2018-08-30T22:27:23.811Z,19.73
2018-08-30T22:29:52.570Z,19.13
2018-08-30T22:32:21.162Z,19.93
2018-08-30T22:34:49.966Z,20.93
2018-08-30T22:37:19.527Z,20.27
2018-08-30T22:39:48.250Z,20.13
2018-08-30T22:42:17.021Z,20.33
2018-08-30T22:44:45.696Z,20.63
2018-08-30T22:47:14.401Z,20.90
2018-08-30T22:49:44.139Z,20.53
2018-08-30T22:52:12.826Z,21.60
2018-08-30T22:54:41.859Z,20.70
2018-08-30T22:57:10.615Z,20.63
2018-08-30T22:59:39.269Z,21.17
2018-08-30T23:02:08.125Z,19.70
2018-08-30T23:04:39.052Z,19.87
2018-08-30T23:07:07.747Z,19.47
2018-08-30T23:09:36.379Z,18.57
2018-08-30T23:12:05.326Z,18.70
2018-08-30T23:14:35.017Z,19.53
2018-08-30T23:17:04.544Z,19.67
2018-08-30T23:19:33.766Z,19.57
2018-08-30T23:22:02.675Z,19.03
2018-08-30T23:24:31.358Z,18.50
2018-08-30T23:27:00.429Z,17.73
2018-08-30T23:29:29.181Z,19.00
2018-08-30T23:31:57.925Z,18.93
2018-08-30T23:34:26.811Z,18.80
2018-08-30T23:36:55.562Z,18.13
2018-08-30T23:39:24.300Z,19.23
2018-08-30T23:41:53.200Z,19.63
2018-08-30T23:44:21.933Z,21.10
2018-08-30T23:46:50.637Z,18.67
2018-08-30T23:49:19.468Z,19.50
2018-08-30T23:51:48.362Z,20.30
2018-08-30T23:54:17.096Z,19.73
2018-08-30T23:56:45.951Z,20.37
2018-08-30T23:59:26.546Z,20.27
